^^
Saratoga-Weather Station Historical Data
Daily Summary for April 25, 2020 Units:  Metric    English   Both
Daily Weekly Monthly Yearly Custom
  High: Low: Average:
Temperature: 21.6 °C 8.7 °C 15.6 °C
Dew Point: 12.5 °C 7.8 °C 10.3 °C
Humidity: 95% 49% 73%
Wind Speed: 13km/h 0km/h 2km/h
Wind Gust: 20.9km/h - -
Wind- - SSW
Pressure: 1032.8 hPa 1031.2 hPa -
Precipitation: 0.0 mm    
Historical Graphs
 
 
Tabular Data for April 25, 2020
Time Temperature Dew Point Pressure Wind Wind Speed Wind Gust Humidity Rainfall Rate (Hourly) solar
00:02 11.7 °C 9.8 °C 1031.8 hPa Calm   1.6 km/h 88% 0.0 mm 0 W/m2
00:07 11.6 °C 9.7 °C 1031.8 hPa Calm     88% 0.0 mm 0 W/m2
00:12 11.4 °C 9.7 °C 1031.8 hPa Calm   1.6 km/h 89% 0.0 mm 0 W/m2
00:17 11.3 °C 9.6 °C 1031.8 hPa Calm     89% 0.0 mm 0 W/m2
00:22 11.2 °C 9.6 °C 1031.8 hPa Calm     90% 0.0 mm 0 W/m2
00:27 11.2 °C 9.6 °C 1031.8 hPa Calm     90% 0.0 mm 0 W/m2
00:33 11.1 °C 9.5 °C 1031.8 hPa Calm     90% 0.0 mm 0 W/m2
00:38 10.9 °C 9.5 °C 1031.8 hPa Calm     91% 0.0 mm 0 W/m2
00:43 10.8 °C 9.4 °C 1031.8 hPa Calm     91% 0.0 mm 0 W/m2
00:48 10.8 °C 9.4 °C 1031.8 hPa Calm     91% 0.0 mm 0 W/m2
00:53 10.7 °C 9.3 °C 1031.8 hPa Calm     91% 0.0 mm 0 W/m2
00:58 10.6 °C 9.2 °C 1031.8 hPa Calm     91% 0.0 mm 0 W/m2
01:03 10.4 °C 9 °C 1031.8 hPa Calm     91% 0.0 mm 0 W/m2
01:08 10.4 °C 9.2 °C 1031.5 hPa Calm     92% 0.0 mm 0 W/m2
01:13 10.3 °C 9.1 °C 1031.5 hPa Calm     92% 0.0 mm 0 W/m2
01:18 10.2 °C 9 °C 1031.5 hPa Calm     92% 0.0 mm 0 W/m2
01:23 10.2 °C 9 °C 1031.5 hPa Calm     92% 0.0 mm 0 W/m2
01:28 10.2 °C 9 °C 1031.5 hPa Calm     92% 0.0 mm 0 W/m2
01:33 10.1 °C 9 °C 1031.5 hPa Calm     93% 0.0 mm 0 W/m2
01:38 10.1 °C 9 °C 1031.5 hPa Calm     93% 0.0 mm 0 W/m2
01:43 10.1 °C 9 °C 1031.5 hPa Calm     93% 0.0 mm 0 W/m2
01:48 10 °C 8.9 °C 1031.5 hPa Calm     93% 0.0 mm 0 W/m2
01:53 10 °C 8.9 °C 1031.5 hPa Calm     93% 0.0 mm 0 W/m2
01:59 10 °C 8.9 °C 1031.5 hPa Calm     93% 0.0 mm 0 W/m2
02:04 9.9 °C 8.8 °C 1031.5 hPa Calm     93% 0.0 mm 0 W/m2
02:09 9.9 °C 8.8 °C 1031.5 hPa Calm     93% 0.0 mm 0 W/m2
02:14 9.9 °C 9 °C 1031.5 hPa Calm     94% 0.0 mm 0 W/m2
02:19 9.9 °C 9 °C 1031.5 hPa South 1.4 km/h 1.6 km/h 94% 0.0 mm 0 W/m2
02:24 9.9 °C 9 °C 1031.5 hPa Calm     94% 0.0 mm 0 W/m2
02:29 9.9 °C 9 °C 1031.5 hPa South 1.4 km/h 1.6 km/h 94% 0.0 mm 0 W/m2
02:34 9.9 °C 9 °C 1031.5 hPa Calm   1.6 km/h 94% 0.0 mm 0 W/m2
02:39 10.1 °C 9.2 °C 1031.8 hPa NW 3.2 km/h 3.2 km/h 94% 0.0 mm 0 W/m2
02:44 10.2 °C 9.3 °C 1031.5 hPa NW 1.4 km/h 3.2 km/h 94% 0.0 mm 0 W/m2
02:49 10.3 °C 9.4 °C 1031.5 hPa West 1.4 km/h 3.2 km/h 94% 0.0 mm 0 W/m2
02:54 10.5 °C 9.6 °C 1031.5 hPa West 1.4 km/h 3.2 km/h 94% 0.0 mm 0 W/m2
02:59 10.8 °C 9.9 °C 1031.5 hPa West 1.4 km/h 3.2 km/h 94% 0.0 mm 0 W/m2
03:04 10.8 °C 9.7 °C 1031.5 hPa West 3.2 km/h 4.8 km/h 93% 0.0 mm 0 W/m2
03:09 10.8 °C 9.6 °C 1031.5 hPa West 3.2 km/h 3.2 km/h 92% 0.0 mm 0 W/m2
03:14 10.8 °C 9.6 °C 1031.5 hPa West 3.2 km/h 3.2 km/h 92% 0.0 mm 0 W/m2
03:19 10.7 °C 9.5 °C 1031.5 hPa West 1.4 km/h 1.6 km/h 92% 0.0 mm 0 W/m2
03:24 10.6 °C 9.4 °C 1031.5 hPa West 1.4 km/h 1.6 km/h 92% 0.0 mm 0 W/m2
03:29 10.4 °C 9.2 °C 1031.5 hPa Calm   3.2 km/h 92% 0.0 mm 0 W/m2
03:34 10.3 °C 9.1 °C 1031.5 hPa Calm     92% 0.0 mm 0 W/m2
03:39 10.3 °C 9.1 °C 1031.8 hPa Calm     92% 0.0 mm 0 W/m2
03:44 10.2 °C 9 °C 1031.8 hPa Calm     92% 0.0 mm 0 W/m2
03:49 10.1 °C 8.9 °C 1031.8 hPa Calm     92% 0.0 mm 0 W/m2
03:54 10.1 °C 8.9 °C 1031.8 hPa Calm     92% 0.0 mm 0 W/m2
03:59 9.9 °C 8.8 °C 1031.8 hPa Calm     93% 0.0 mm 0 W/m2
04:04 9.8 °C 8.6 °C 1031.8 hPa Calm     92% 0.0 mm 0 W/m2
04:09 9.8 °C 8.7 °C 1031.8 hPa Calm     93% 0.0 mm 0 W/m2
04:14 9.8 °C 8.7 °C 1031.8 hPa Calm     93% 0.0 mm 0 W/m2
04:19 9.7 °C 8.6 °C 1031.8 hPa Calm     93% 0.0 mm 0 W/m2
04:24 9.7 °C 8.6 °C 1031.8 hPa Calm     93% 0.0 mm 0 W/m2
04:29 9.7 °C 8.6 °C 1031.8 hPa Calm   1.6 km/h 93% 0.0 mm 0 W/m2
04:35 9.6 °C 8.5 °C 1031.8 hPa Calm     93% 0.0 mm 0 W/m2
04:40 9.6 °C 8.7 °C 1031.8 hPa Calm     94% 0.0 mm 0 W/m2
04:45 9.6 °C 8.7 °C 1031.8 hPa Calm     94% 0.0 mm 0 W/m2
04:50 9.5 °C 8.6 °C 1031.8 hPa Calm     94% 0.0 mm 0 W/m2
04:55 9.4 °C 8.5 °C 1031.8 hPa Calm     94% 0.0 mm 0 W/m2
05:00 9.4 °C 8.3 °C 1031.8 hPa Calm     93% 0.0 mm 0 W/m2
05:05 9.3 °C 8.2 °C 1031.8 hPa Calm     93% 0.0 mm 0 W/m2
05:10 9.2 °C 8.3 °C 1032.2 hPa Calm     94% 0.0 mm 0 W/m2
05:15 9.2 °C 8.3 °C 1032.2 hPa Calm     94% 0.0 mm 0 W/m2
05:20 9.1 °C 8.2 °C 1032.2 hPa Calm     94% 0.0 mm 0 W/m2
05:25 9 °C 8.1 °C 1032.2 hPa Calm     94% 0.0 mm 0 W/m2
05:30 8.9 °C 8 °C 1032.2 hPa Calm     94% 0.0 mm 0 W/m2
05:35 8.9 °C 8 °C 1032.2 hPa Calm   1.6 km/h 94% 0.0 mm 0 W/m2
05:40 8.8 °C 7.9 °C 1032.2 hPa Calm     94% 0.0 mm 0 W/m2
05:45 8.8 °C 7.9 °C 1032.2 hPa Calm   1.6 km/h 94% 0.0 mm 5 W/m2
05:50 8.7 °C 7.8 °C 1032.2 hPa Calm     94% 0.0 mm 7 W/m2
05:55 8.7 °C 7.8 °C 1032.2 hPa Calm     94% 0.0 mm 11 W/m2
06:00 8.7 °C 7.8 °C 1032.2 hPa Calm     94% 0.0 mm 12 W/m2
06:05 8.7 °C 7.8 °C 1031.8 hPa Calm     94% 0.0 mm 12 W/m2
06:10 8.7 °C 7.9 °C 1031.8 hPa Calm     95% 0.0 mm 12 W/m2
06:15 8.7 °C 7.9 °C 1032.2 hPa Calm     95% 0.0 mm 14 W/m2
06:20 8.8 °C 8 °C 1032.2 hPa Calm     95% 0.0 mm 16 W/m2
06:25 8.8 °C 8 °C 1032.2 hPa Calm     95% 0.0 mm 19 W/m2
06:30 8.8 °C 8 °C 1032.2 hPa Calm     95% 0.0 mm 25 W/m2
06:35 8.9 °C 8.1 °C 1032.2 hPa Calm   3.2 km/h 95% 0.0 mm 26 W/m2
06:40 9 °C 8.2 °C 1032.2 hPa West 1.4 km/h 1.6 km/h 95% 0.0 mm 32 W/m2
06:45 9.1 °C 8.3 °C 1032.2 hPa Calm     95% 0.0 mm 32 W/m2
06:50 9.2 °C 8.4 °C 1032.2 hPa Calm     95% 0.0 mm 32 W/m2
06:55 9.3 °C 8.5 °C 1032.2 hPa Calm     95% 0.0 mm 35 W/m2
07:00 9.3 °C 8.5 °C 1032.2 hPa Calm   1.6 km/h 95% 0.0 mm 30 W/m2
07:05 9.5 °C 8.7 °C 1032.2 hPa Calm     95% 0.0 mm 32 W/m2
07:10 9.6 °C 8.8 °C 1032.2 hPa Calm     95% 0.0 mm 44 W/m2
07:15 9.7 °C 8.9 °C 1032.5 hPa Calm     95% 0.0 mm 53 W/m2
07:20 9.8 °C 9 °C 1032.5 hPa Calm     95% 0.0 mm 69 W/m2
07:25 9.9 °C 9.1 °C 1032.5 hPa Calm     95% 0.0 mm 84 W/m2
07:30 10.2 °C 9.4 °C 1032.5 hPa Calm     95% 0.0 mm 86 W/m2
07:35 10.4 °C 9.6 °C 1032.5 hPa Calm     95% 0.0 mm 86 W/m2
07:40 10.7 °C 9.9 °C 1032.5 hPa Calm     95% 0.0 mm 113 W/m2
07:45 11.1 °C 10.3 °C 1032.5 hPa Calm     95% 0.0 mm 223 W/m2
07:50 11.6 °C 10.8 °C 1032.5 hPa Calm     95% 0.0 mm 241 W/m2
07:55 12.3 °C 11.2 °C 1032.5 hPa NW 1.4 km/h 4.8 km/h 93% 0.0 mm 258 W/m2
08:00 13 °C 11.6 °C 1032.5 hPa NW 4.7 km/h 4.8 km/h 91% 0.0 mm 276 W/m2
08:05 13.4 °C 11.5 °C 1032.5 hPa West 3.2 km/h 3.2 km/h 88% 0.0 mm 292 W/m2
08:10 13.8 °C 11.5 °C 1032.5 hPa West 6.4 km/h 9.7 km/h 86% 0.0 mm 288 W/m2
08:15 14.1 °C 11.4 °C 1032.5 hPa WNW 4.7 km/h 6.4 km/h 84% 0.0 mm 295 W/m2
08:20 14.3 °C 11.3 °C 1032.5 hPa NNW 3.2 km/h 9.7 km/h 82% 0.0 mm 308 W/m2
08:25 14.6 °C 11.4 °C 1032.8 hPa Calm   4.8 km/h 81% 0.0 mm 327 W/m2
08:30 14.8 °C 11.2 °C 1032.8 hPa WNW 1.4 km/h 4.8 km/h 79% 0.0 mm 334 W/m2
08:35 14.9 °C 11.3 °C 1032.8 hPa WNW 3.2 km/h 3.2 km/h 79% 0.0 mm 325 W/m2
08:40 15 °C 11.4 °C 1032.8 hPa WNW 3.2 km/h 4.8 km/h 79% 0.0 mm 302 W/m2
08:45 15.1 °C 11.5 °C 1032.8 hPa West 1.4 km/h 6.4 km/h 79% 0.0 mm 380 W/m2
08:50 15.2 °C 11.4 °C 1032.8 hPa WNW 1.4 km/h 4.8 km/h 78% 0.0 mm 394 W/m2
08:55 15.3 °C 11.5 °C 1032.8 hPa Calm   4.8 km/h 78% 0.0 mm 392 W/m2
09:00 15.4 °C 11.6 °C 1032.8 hPa NW 4.7 km/h 8 km/h 78% 0.0 mm 432 W/m2
09:05 15.6 °C 11.8 °C 1032.8 hPa WNW 1.4 km/h 14.5 km/h 78% 0.0 mm 448 W/m2
09:10 15.8 °C 11.6 °C 1032.8 hPa NE 6.4 km/h 9.7 km/h 76% 0.0 mm 466 W/m2
09:15 16.1 °C 11.5 °C 1032.8 hPa WNW 3.2 km/h 14.5 km/h 74% 0.0 mm 471 W/m2
09:20 16.3 °C 11.9 °C 1032.8 hPa West 1.4 km/h 1.6 km/h 75% 0.0 mm 508 W/m2
09:25 16.7 °C 12 °C 1032.8 hPa NNE 3.2 km/h 4.8 km/h 74% 0.0 mm 513 W/m2
09:31 17 °C 12.3 °C 1032.8 hPa East 6.4 km/h 9.7 km/h 74% 0.0 mm 589 W/m2
09:36 17.3 °C 12.2 °C 1032.8 hPa Calm   4.8 km/h 72% 0.0 mm 589 W/m2
09:41 17.6 °C 12.5 °C 1032.8 hPa ENE 3.2 km/h 6.4 km/h 72% 0.0 mm 585 W/m2
09:46 17.7 °C 12.2 °C 1032.8 hPa Calm   4.8 km/h 70% 0.0 mm 621 W/m2
09:51 17.8 °C 12.3 °C 1032.8 hPa East 6.4 km/h 9.7 km/h 70% 0.0 mm 582 W/m2
09:56 17.8 °C 12 °C 1032.8 hPa East 4.7 km/h 9.7 km/h 69% 0.0 mm 125 W/m2
10:01 17.9 °C 12.1 °C 1032.8 hPa West 6.4 km/h 12.9 km/h 69% 0.0 mm 188 W/m2
10:06 17.7 °C 11.7 °C 1032.8 hPa West 3.2 km/h 16.1 km/h 68% 0.0 mm 188 W/m2
10:11 17.4 °C 11.2 °C 1032.8 hPa North 4.7 km/h 9.7 km/h 67% 0.0 mm 153 W/m2
10:16 17.3 °C 11.6 °C 1032.8 hPa WNW 6.4 km/h 9.7 km/h 69% 0.0 mm 295 W/m2
10:21 17.1 °C 11.1 °C 1032.8 hPa WNW 6.4 km/h 16.1 km/h 68% 0.0 mm 176 W/m2
10:26 16.8 °C 11.1 °C 1032.8 hPa NNW 7.9 km/h 8 km/h 69% 0.0 mm 686 W/m2
10:31 16.7 °C 11.2 °C 1032.8 hPa NNW 1.4 km/h 16.1 km/h 70% 0.0 mm 176 W/m2
10:36 16.7 °C 11.4 °C 1032.8 hPa ENE 3.2 km/h 4.8 km/h 71% 0.0 mm 190 W/m2
10:41 16.6 °C 11.3 °C 1032.8 hPa NE 3.2 km/h 8 km/h 71% 0.0 mm 262 W/m2
10:46 16.7 °C 11.4 °C 1032.8 hPa SW 3.2 km/h 3.2 km/h 71% 0.0 mm 188 W/m2
10:51 17 °C 11.5 °C 1032.8 hPa West 6.4 km/h 11.3 km/h 70% 0.0 mm 773 W/m2
10:56 17.4 °C 11.4 °C 1032.8 hPa South 1.4 km/h 9.7 km/h 68% 0.0 mm 886 W/m2
11:01 17.7 °C 11.5 °C 1032.8 hPa NW 3.2 km/h 11.3 km/h 67% 0.0 mm 877 W/m2
11:06 17.9 °C 11.5 °C 1032.8 hPa WNW 6.4 km/h 16.1 km/h 66% 0.0 mm 819 W/m2
11:11 18.1 °C 11.6 °C 1032.8 hPa WNW 9.7 km/h 9.7 km/h 66% 0.0 mm 752 W/m2
11:16 18.2 °C 11.3 °C 1032.5 hPa West 13 km/h 12.9 km/h 64% 0.0 mm 791 W/m2
11:21 18.2 °C 11 °C 1032.5 hPa ESE 3.2 km/h 6.4 km/h 63% 0.0 mm 860 W/m2
11:26 18.3 °C 10.9 °C 1032.8 hPa NW 6.4 km/h 9.7 km/h 62% 0.0 mm 735 W/m2
11:32 18.3 °C 11.1 °C 1032.5 hPa West 4.7 km/h 9.7 km/h 63% 0.0 mm 807 W/m2
11:37 18.7 °C 11.3 °C 1032.8 hPa ENE 7.9 km/h 8 km/h 62% 0.0 mm 858 W/m2
11:42 18.9 °C 11.5 °C 1032.5 hPa ESE 4.7 km/h 17.7 km/h 62% 0.0 mm 896 W/m2
11:47 19 °C 11.6 °C 1032.5 hPa SE 4.7 km/h 6.4 km/h 62% 0.0 mm 928 W/m2
11:52 18.9 °C 11.2 °C 1032.5 hPa ENE 3.2 km/h 17.7 km/h 61% 0.0 mm 928 W/m2
11:57 18.7 °C 11.3 °C 1032.5 hPa ENE 3.2 km/h 8 km/h 62% 0.0 mm 207 W/m2
12:02 18.5 °C 11.3 °C 1032.5 hPa NW 1.4 km/h 14.5 km/h 63% 0.0 mm 983 W/m2
12:07 18.8 °C 11.1 °C 1032.5 hPa West 1.4 km/h 4.8 km/h 61% 0.0 mm 339 W/m2
12:12 18.9 °C 11.5 °C 1032.5 hPa NNW 4.7 km/h 8 km/h 62% 0.0 mm 258 W/m2
12:17 18.6 °C 11.4 °C 1032.5 hPa NE 4.7 km/h 6.4 km/h 63% 0.0 mm 181 W/m2
12:22 18.8 °C 10.9 °C 1032.5 hPa North 6.4 km/h 6.4 km/h 60% 0.0 mm 1042 W/m2
12:27 18.8 °C 10.9 °C 1032.5 hPa ENE 6.4 km/h 16.1 km/h 60% 0.0 mm 545 W/m2
12:32 19 °C 11.3 °C 1032.5 hPa WNW 3.2 km/h 6.4 km/h 61% 0.0 mm 517 W/m2
12:37 19.3 °C 11.3 °C 1032.5 hPa ESE 1.4 km/h 16.1 km/h 60% 0.0 mm 388 W/m2
12:42 19.3 °C 11.3 °C 1032.5 hPa NE 4.7 km/h 4.8 km/h 60% 0.0 mm 371 W/m2
12:47 19.1 °C 11.2 °C 1032.5 hPa East 6.4 km/h 14.5 km/h 60% 0.0 mm 325 W/m2
12:52 18.9 °C 11.2 °C 1032.5 hPa ESE 3.2 km/h 17.7 km/h 61% 0.0 mm 260 W/m2
12:57 18.7 °C 11 °C 1032.5 hPa East 3.2 km/h 8 km/h 61% 0.0 mm 202 W/m2
13:02 18.6 °C 10.9 °C 1032.5 hPa Calm   12.9 km/h 61% 0.0 mm 227 W/m2
13:07 18.6 °C 11.4 °C 1032.5 hPa NE 1.4 km/h 3.2 km/h 63% 0.0 mm 301 W/m2
13:12 18.8 °C 11.4 °C 1032.5 hPa ENE 1.4 km/h 6.4 km/h 62% 0.0 mm 364 W/m2
13:17 18.9 °C 11.2 °C 1032.5 hPa ENE 3.2 km/h 8 km/h 61% 0.0 mm 269 W/m2
13:22 18.9 °C 11.2 °C 1032.5 hPa NE 3.2 km/h 6.4 km/h 61% 0.0 mm 218 W/m2
13:27 18.7 °C 11.3 °C 1032.5 hPa NNW 7.9 km/h 8 km/h 62% 0.0 mm 267 W/m2
13:32 18.7 °C 11 °C 1032.5 hPa Calm   9.7 km/h 61% 0.0 mm 320 W/m2
13:37 18.8 °C 11.4 °C 1032.2 hPa WSW 1.4 km/h 1.6 km/h 62% 0.0 mm 285 W/m2
13:42 18.9 °C 11.5 °C 1032.5 hPa WNW 4.7 km/h 4.8 km/h 62% 0.0 mm 250 W/m2
13:47 18.8 °C 11.4 °C 1032.2 hPa Calm   4.8 km/h 62% 0.0 mm 183 W/m2
13:52 18.8 °C 11.4 °C 1032.2 hPa Calm   3.2 km/h 62% 0.0 mm 139 W/m2
13:57 18.7 °C 11.5 °C 1032.2 hPa SSE 1.4 km/h 1.6 km/h 63% 0.0 mm 151 W/m2
14:02 18.6 °C 11.2 °C 1032.2 hPa North 1.4 km/h 4.8 km/h 62% 0.0 mm 239 W/m2
14:07 18.7 °C 11.5 °C 1032.2 hPa NW 1.4 km/h 8 km/h 63% 0.0 mm 353 W/m2
14:12 18.8 °C 11.4 °C 1032.2 hPa NNE 1.4 km/h 3.2 km/h 62% 0.0 mm 420 W/m2
14:17 19 °C 11.6 °C 1032.2 hPa Calm   4.8 km/h 62% 0.0 mm 311 W/m2
14:22 19.1 °C 11.6 °C 1032.2 hPa NNE 1.4 km/h 6.4 km/h 62% 0.0 mm 239 W/m2
14:27 19.1 °C 11.2 °C 1032.2 hPa Calm   3.2 km/h 60% 0.0 mm 229 W/m2
14:32 19.2 °C 11.5 °C 1032.5 hPa North 1.4 km/h 9.7 km/h 61% 0.0 mm 311 W/m2
14:37 19.3 °C 11.3 °C 1032.2 hPa Calm   4.8 km/h 60% 0.0 mm 417 W/m2
14:42 19.5 °C 11 °C 1032.2 hPa NW 3.2 km/h 6.4 km/h 58% 0.0 mm 598 W/m2
14:47 19.7 °C 11.2 °C 1032.2 hPa Calm   3.2 km/h 58% 0.0 mm 577 W/m2
14:53 19.9 °C 11.6 °C 1032.2 hPa WSW 3.2 km/h 9.7 km/h 59% 0.0 mm 346 W/m2
14:58 19.7 °C 11.2 °C 1032.2 hPa Calm   3.2 km/h 58% 0.0 mm 390 W/m2
15:03 19.8 °C 11 °C 1031.8 hPa ENE 3.2 km/h 6.4 km/h 57% 0.0 mm 622 W/m2
15:08 20.2 °C 11.1 °C 1032.2 hPa NNW 1.4 km/h 9.7 km/h 56% 0.0 mm 427 W/m2
15:13 20.3 °C 11.5 °C 1031.8 hPa ESE 3.2 km/h 3.2 km/h 57% 0.0 mm 469 W/m2
15:18 20.4 °C 10.2 °C 1031.8 hPa West 4.7 km/h 4.8 km/h 52% 0.0 mm 348 W/m2
15:23 20.5 °C 10 °C 1032.2 hPa WNW 3.2 km/h 4.8 km/h 51% 0.0 mm 272 W/m2
15:28 20.4 °C 9.9 °C 1032.2 hPa East 3.2 km/h 6.4 km/h 51% 0.0 mm 230 W/m2
15:33 20.2 °C 9.7 °C 1032.2 hPa WNW 4.7 km/h 9.7 km/h 51% 0.0 mm 278 W/m2
15:38 19.9 °C 9.5 °C 1031.8 hPa West 3.2 km/h 9.7 km/h 51% 0.0 mm 343 W/m2
15:43 19.8 °C 9.4 °C 1031.8 hPa SSW 1.4 km/h 8 km/h 51% 0.0 mm 411 W/m2
15:48 20 °C 10.1 °C 1031.8 hPa NW 4.7 km/h 6.4 km/h 53% 0.0 mm 388 W/m2
15:53 20.2 °C 9.7 °C 1031.8 hPa South 1.4 km/h 8 km/h 51% 0.0 mm 364 W/m2
15:58 20.2 °C 9.4 °C 1031.8 hPa ENE 6.4 km/h 6.4 km/h 50% 0.0 mm 297 W/m2
16:03 20.1 °C 9.6 °C 1031.8 hPa NW 1.4 km/h 8 km/h 51% 0.0 mm 274 W/m2
16:08 20.1 °C 9.9 °C 1031.8 hPa NE 3.2 km/h 3.2 km/h 52% 0.0 mm 287 W/m2
16:13 20.1 °C 9.9 °C 1031.8 hPa NNW 3.2 km/h 8 km/h 52% 0.0 mm 246 W/m2
16:18 20.1 °C 10.5 °C 1031.8 hPa East 6.4 km/h 6.4 km/h 54% 0.0 mm 311 W/m2
16:23 20.2 °C 10.6 °C 1031.8 hPa NE 4.7 km/h 4.8 km/h 54% 0.0 mm 420 W/m2
16:28 20.4 °C 10.5 °C 1031.8 hPa NW 1.4 km/h 4.8 km/h 53% 0.0 mm 482 W/m2
16:33 20.6 °C 10.1 °C 1031.8 hPa NW 7.9 km/h 12.9 km/h 51% 0.0 mm 526 W/m2
16:38 20.5 °C 9.7 °C 1031.8 hPa West 11.1 km/h 20.9 km/h 50% 0.0 mm 533 W/m2
16:43 20.6 °C 10.4 °C 1031.5 hPa ESE 1.4 km/h 4.8 km/h 52% 0.0 mm 796 W/m2
16:48 20.8 °C 10 °C 1031.5 hPa ESE 4.7 km/h 20.9 km/h 50% 0.0 mm 373 W/m2
16:53 20.7 °C 10.2 °C 1031.5 hPa SE 3.2 km/h 4.8 km/h 51% 0.0 mm 501 W/m2
16:58 20.7 °C 10.2 °C 1031.5 hPa NNE 4.7 km/h 9.7 km/h 51% 0.0 mm 445 W/m2
17:03 20.7 °C 10.5 °C 1031.5 hPa Calm   1.6 km/h 52% 0.0 mm 243 W/m2
17:08 20.5 °C 10.3 °C 1031.5 hPa ENE 4.7 km/h 6.4 km/h 52% 0.0 mm 199 W/m2
17:13 20.2 °C 10.6 °C 1031.5 hPa ESE 6.4 km/h 6.4 km/h 54% 0.0 mm 214 W/m2
17:18 20.1 °C 10.5 °C 1031.5 hPa East 4.7 km/h 4.8 km/h 54% 0.0 mm 264 W/m2
17:23 19.9 °C 10.3 °C 1031.5 hPa Calm   3.2 km/h 54% 0.0 mm 311 W/m2
17:28 20.1 °C 10.5 °C 1031.5 hPa North 3.2 km/h 3.2 km/h 54% 0.0 mm 392 W/m2
17:33 20.4 °C 10.8 °C 1031.5 hPa ENE 1.4 km/h 4.8 km/h 54% 0.0 mm 517 W/m2
17:38 20.8 °C 11.2 °C 1031.5 hPa NW 3.2 km/h 4.8 km/h 54% 0.0 mm 441 W/m2
17:43 20.9 °C 11 °C 1031.5 hPa NE 1.4 km/h 3.2 km/h 53% 0.0 mm 195 W/m2
17:48 20.8 °C 10.6 °C 1031.5 hPa Calm   6.4 km/h 52% 0.0 mm 113 W/m2
17:53 20.5 °C 10.6 °C 1031.5 hPa WNW 4.7 km/h 6.4 km/h 53% 0.0 mm 109 W/m2
17:58 20.6 °C 10.7 °C 1031.5 hPa West 3.2 km/h 6.4 km/h 53% 0.0 mm 107 W/m2
18:03 20.5 °C 10.6 °C 1031.5 hPa NNE 4.7 km/h 4.8 km/h 53% 0.0 mm 471 W/m2
18:08 20.8 °C 10.9 °C 1031.5 hPa WSW 3.2 km/h 6.4 km/h 53% 0.0 mm 457 W/m2
18:13 21.1 °C 11.1 °C 1031.5 hPa NE 1.4 km/h 4.8 km/h 53% 0.0 mm 443 W/m2
18:18 21.2 °C 11 °C 1031.5 hPa WSW 3.2 km/h 3.2 km/h 52% 0.0 mm 431 W/m2
18:23 21.3 °C 10.5 °C 1031.5 hPa WNW 1.4 km/h 9.7 km/h 50% 0.0 mm 410 W/m2
18:29 21.2 °C 10.4 °C 1031.5 hPa NNW 9.7 km/h 9.7 km/h 50% 0.0 mm 374 W/m2
18:34 21.1 °C 10.3 °C 1031.5 hPa West 13 km/h 14.5 km/h 50% 0.0 mm 336 W/m2
18:39 21.2 °C 10.4 °C 1031.2 hPa NE 1.4 km/h 4.8 km/h 50% 0.0 mm 306 W/m2
18:44 21.2 °C 10.1 °C 1031.2 hPa ENE 1.4 km/h 14.5 km/h 49% 0.0 mm 288 W/m2
18:49 21.3 °C 10.2 °C 1031.2 hPa West 1.4 km/h 4.8 km/h 49% 0.0 mm 274 W/m2
18:54 21.4 °C 10.2 °C 1031.2 hPa SE 11.1 km/h 12.9 km/h 49% 0.0 mm 69 W/m2
18:59 21.1 °C 10.3 °C 1031.2 hPa NNW 1.4 km/h 4.8 km/h 50% 0.0 mm 267 W/m2
19:04 21.1 °C 10 °C 1031.2 hPa West 4.7 km/h 4.8 km/h 49% 0.0 mm 294 W/m2
19:09 21.2 °C 10.1 °C 1031.2 hPa Calm   4.8 km/h 49% 0.0 mm 292 W/m2
19:14 21.4 °C 10.5 °C 1031.2 hPa NNE 3.2 km/h 6.4 km/h 50% 0.0 mm 313 W/m2
19:19 21.4 °C 10.5 °C 1031.2 hPa NNE 1.4 km/h 6.4 km/h 50% 0.0 mm 316 W/m2
19:24 21.4 °C 10.5 °C 1031.2 hPa NE 1.4 km/h 9.7 km/h 50% 0.0 mm 274 W/m2
19:29 21.6 °C 11 °C 1031.2 hPa NNE 4.7 km/h 4.8 km/h 51% 0.0 mm 246 W/m2
19:34 21.5 °C 10.9 °C 1031.2 hPa East 4.7 km/h 9.7 km/h 51% 0.0 mm 220 W/m2
19:39 21.3 °C 10.8 °C 1031.2 hPa ESE 3.2 km/h 11.3 km/h 51% 0.0 mm 199 W/m2
19:44 21.1 °C 10.6 °C 1031.2 hPa ENE 4.7 km/h 4.8 km/h 51% 0.0 mm 155 W/m2
19:50 20.9 °C 10.7 °C 1031.2 hPa NNW 1.4 km/h 9.7 km/h 52% 0.0 mm 137 W/m2
19:55 20.9 °C 10.7 °C 1031.2 hPa ENE 3.2 km/h 4.8 km/h 52% 0.0 mm 132 W/m2
20:00 20.9 °C 11 °C 1031.2 hPa NE 3.2 km/h 4.8 km/h 53% 0.0 mm 132 W/m2
20:05 20.8 °C 10.9 °C 1031.2 hPa NNW 1.4 km/h 3.2 km/h 53% 0.0 mm 123 W/m2
20:10 20.8 °C 10.9 °C 1031.2 hPa ENE 4.7 km/h 6.4 km/h 53% 0.0 mm 109 W/m2
20:15 20.7 °C 10.8 °C 1031.2 hPa NE 1.4 km/h 1.6 km/h 53% 0.0 mm 97 W/m2
20:20 20.7 °C 10.8 °C 1031.2 hPa NW 3.2 km/h 4.8 km/h 53% 0.0 mm 88 W/m2
20:25 20.4 °C 10.8 °C 1031.5 hPa NNW 1.4 km/h 8 km/h 54% 0.0 mm 83 W/m2
20:30 20.3 °C 11 °C 1031.5 hPa WNW 3.2 km/h 3.2 km/h 55% 0.0 mm 76 W/m2
20:35 20.3 °C 11 °C 1031.5 hPa SSE 1.4 km/h 8 km/h 55% 0.0 mm 54 W/m2
20:40 20.1 °C 10.8 °C 1031.5 hPa NNW 1.4 km/h 3.2 km/h 55% 0.0 mm 42 W/m2
20:45 20 °C 11 °C 1031.5 hPa ENE 3.2 km/h 4.8 km/h 56% 0.0 mm 37 W/m2
20:50 19.8 °C 11 °C 1031.5 hPa NNW 1.4 km/h 4.8 km/h 57% 0.0 mm 32 W/m2
20:55 19.7 °C 11.2 °C 1031.5 hPa Calm   1.6 km/h 58% 0.0 mm 25 W/m2
21:00 19.4 °C 11.2 °C 1031.5 hPa Calm   3.2 km/h 59% 0.0 mm 19 W/m2
21:05 19.1 °C 10.9 °C 1031.5 hPa North 1.4 km/h 1.6 km/h 59% 0.0 mm 16 W/m2
21:10 18.9 °C 10.7 °C 1031.5 hPa Calm   1.6 km/h 59% 0.0 mm 12 W/m2
21:15 18.8 °C 10.9 °C 1031.5 hPa Calm   1.6 km/h 60% 0.0 mm 9 W/m2
21:20 18.6 °C 10.9 °C 1031.5 hPa East 1.4 km/h 1.6 km/h 61% 0.0 mm 7 W/m2
21:25 18.4 °C 11.2 °C 1031.5 hPa East 1.4 km/h 1.6 km/h 63% 0.0 mm 5 W/m2
21:30 18 °C 11.3 °C 1031.5 hPa East 1.4 km/h 1.6 km/h 65% 0.0 mm 0 W/m2
21:35 17.6 °C 11.4 °C 1031.8 hPa Calm   1.6 km/h 67% 0.0 mm 0 W/m2
21:40 17.3 °C 11.3 °C 1031.8 hPa East 1.4 km/h 3.2 km/h 68% 0.0 mm 0 W/m2
21:45 16.8 °C 11.1 °C 1031.8 hPa Calm     69% 0.0 mm 0 W/m2
21:50 16.6 °C 11.1 °C 1031.8 hPa Calm   3.2 km/h 70% 0.0 mm 0 W/m2
21:55 16.3 °C 11 °C 1031.8 hPa Calm   3.2 km/h 71% 0.0 mm 0 W/m2
22:00 16 °C 11 °C 1031.8 hPa Calm     72% 0.0 mm 0 W/m2
22:05 15.7 °C 11.1 °C 1031.8 hPa Calm     74% 0.0 mm 0 W/m2
22:10 15.4 °C 10.8 °C 1031.8 hPa Calm   3.2 km/h 74% 0.0 mm 0 W/m2
22:15 15.3 °C 10.9 °C 1032.2 hPa Calm     75% 0.0 mm 0 W/m2
22:20 15.2 °C 10.8 °C 1031.8 hPa Calm   3.2 km/h 75% 0.0 mm 0 W/m2
22:25 15.1 °C 10.9 °C 1032.2 hPa Calm     76% 0.0 mm 0 W/m2
22:30 14.9 °C 10.7 °C 1032.2 hPa Calm   1.6 km/h 76% 0.0 mm 0 W/m2
22:35 14.8 °C 10.8 °C 1032.2 hPa Calm     77% 0.0 mm 0 W/m2
22:40 14.7 °C 10.7 °C 1032.2 hPa Calm     77% 0.0 mm 0 W/m2
22:45 14.6 °C 10.8 °C 1032.2 hPa SSW 1.4 km/h 3.2 km/h 78% 0.0 mm 0 W/m2
22:50 14.5 °C 10.7 °C 1032.2 hPa Calm     78% 0.0 mm 0 W/m2
22:55 14.4 °C 10.6 °C 1032.2 hPa SSW 1.4 km/h 3.2 km/h 78% 0.0 mm 0 W/m2
23:00 14.2 °C 10.6 °C 1032.2 hPa Calm     79% 0.0 mm 0 W/m2
23:05 14.2 °C 10.6 °C 1032.2 hPa Calm     79% 0.0 mm 0 W/m2
23:10 14 °C 10.4 °C 1032.2 hPa Calm     79% 0.0 mm 0 W/m2
23:15 13.9 °C 10.5 °C 1032.2 hPa Calm     80% 0.0 mm 0 W/m2
23:20 13.8 °C 10.4 °C 1032.2 hPa Calm     80% 0.0 mm 0 W/m2
23:25 13.7 °C 10.3 °C 1032.5 hPa Calm     80% 0.0 mm 0 W/m2
23:30 13.6 °C 10.2 °C 1032.5 hPa Calm     80% 0.0 mm 0 W/m2
23:35 13.5 °C 10.3 °C 1032.5 hPa SSW 1.4 km/h 1.6 km/h 81% 0.0 mm 0 W/m2
23:40 13.3 °C 10.1 °C 1032.5 hPa Calm     81% 0.0 mm 0 W/m2
23:45 13.3 °C 10.3 °C 1032.5 hPa Calm   1.6 km/h 82% 0.0 mm 0 W/m2
23:50 13.2 °C 10.2 °C 1032.5 hPa Calm     82% 0.0 mm 0 W/m2
23:55 13.2 °C 10.4 °C 1032.5 hPa Calm     83% 0.0 mm 0 W/m2
Juneau County Weather
Compliments of Weather Underground - 2 mb